Aérodrome :
LOGIN :

S'inscrire | Disclaimer

   EN    FR    IT 

 










Légende :    VFR   VFR Marginal   IFR   IFR Intensif   IFR Très Intensif
Visi : 
Plafond : 
>= 8 km
>= 3000ft
5 à 8 km
1000 à 3000 ft
1500m à 5 km
500 à 1000 ft
800 à 1500m
200 à 500 ft
< 800m
< 200 ft
Symboles :   Orages  Brouillard  Fortes neiges  Fortes précipitations  Vent > 20 kt
SIGMETs :   Divers  Orages  Givrage  Turbulence  Onde Orograph.  Cendres Volcan.






- Altitude de l'aérodrome : 913 ft


LFSX - Luxeuil

DERNIER METAR :
  • 182200Z AUTO 23010KT 9999 ////// 07/02 Q1027

METARs EXPIRÉS :
  • 182130Z AUTO 23011KT 9999 ////// 07/02 Q1027
  • 182100Z AUTO 23009KT 9999 ////// 06/02 Q1027
  • 182030Z AUTO 23007KT 9999 BKN040 OVC054 06/02 Q1028
  • 182000Z AUTO 24003KT 9999 BKN038 BKN046 OVC058 06/02 Q1028
  • 181930Z AUTO 21006KT 9999 ////// 07/02 Q1028
  • 181900Z AUTO 22006KT 9999 ////// 07/02 Q1028

TAF TAF LFSX
Valide du 18 à 21h jusqu'au 19 à 21h UTC


182000Z 1821/1921 23010G20KT 9999 BKN030
BECMG 1901/1903 3000 RADZ SCT005 OVC015
TEMPO 1903/1907 22015G30KT
BECMG 1907/1909 25010KT CAVOK
BECMG 1919/1921 17005KT 3000 RADZ SCT007 OVC015



MET'MAP, la Météo Aéronautique d'un coup d'oeil ! - Copyright ORBIFLY Décembre 2007 - Disclaimer

ORBIFLY MET'MAP TEAM :

Programmation & Développement : Alexandra Zaïnal
Sur une idée originale de : Baudouin d'Aumeries
Assistance à la programmation : Marc-Olivier Méhu
Soutien technique & logistique : Manuel Goepfert

Contact : metmap@orbifly.com




SOURCES & CREDITS :

   NOAA